sensor_id;sensor_type;location;lat;lon;timestamp;pressure;altitude;pressure_sealevel;temperature;humidity
12219;BME280;6172;42.646;23.344;2023-03-26T00:01:12;94095.84;;;9.16;100.00
12219;BME280;6172;42.646;23.344;2023-03-26T00:03:40;94094.31;;;9.15;100.00
12219;BME280;6172;42.646;23.344;2023-03-26T00:06:11;94091.38;;;9.06;100.00
12219;BME280;6172;42.646;23.344;2023-03-26T00:08:40;94095.69;;;9.03;100.00
12219;BME280;6172;42.646;23.344;2023-03-26T00:11:14;94096.72;;;8.90;100.00
12219;BME280;6172;42.646;23.344;2023-03-26T00:13:43;94099.44;;;8.90;100.00
12219;BME280;6172;42.646;23.344;2023-03-26T00:16:12;94105.41;;;8.81;100.00
12219;BME280;6172;42.646;23.344;2023-03-26T00:18:40;94106.41;;;8.91;100.00
12219;BME280;6172;42.646;23.344;2023-03-26T00:21:12;94087.22;;;8.78;100.00
12219;BME280;6172;42.646;23.344;2023-03-26T00:23:39;94087.41;;;8.68;100.00
12219;BME280;6172;42.646;23.344;2023-03-26T00:26:08;94082.63;;;8.75;100.00
12219;BME280;6172;42.646;23.344;2023-03-26T00:28:38;94069.97;;;8.69;100.00
12219;BME280;6172;42.646;23.344;2023-03-26T00:31:10;94068.75;;;8.70;100.00
12219;BME280;6172;42.646;23.344;2023-03-26T00:33:39;94060.69;;;8.66;100.00
12219;BME280;6172;42.646;23.344;2023-03-26T00:36:08;94055.88;;;8.74;100.00
12219;BME280;6172;42.646;23.344;2023-03-26T00:38:40;94056.38;;;8.69;100.00
12219;BME280;6172;42.646;23.344;2023-03-26T00:41:09;94057.66;;;8.61;100.00
12219;BME280;6172;42.646;23.344;2023-03-26T00:44:00;94051.34;;;8.67;100.00
12219;BME280;6172;42.646;23.344;2023-03-26T00:46:39;94050.44;;;8.54;100.00
12219;BME280;6172;42.646;23.344;2023-03-26T00:49:08;94060.31;;;8.45;100.00
12219;BME280;6172;42.646;23.344;2023-03-26T00:51:39;94055.28;;;8.43;100.00
12219;BME280;6172;42.646;23.344;2023-03-26T00:54:07;94055.09;;;8.54;100.00
12219;BME280;6172;42.646;23.344;2023-03-26T00:56:35;94060.31;;;8.45;100.00
12219;BME280;6172;42.646;23.344;2023-03-26T00:59:05;94053.03;;;8.38;100.00
12219;BME280;6172;42.646;23.344;2023-03-26T01:01:33;94040.81;;;8.27;100.00
12219;BME280;6172;42.646;23.344;2023-03-26T01:04:22;94051.50;;;8.37;100.00
12219;BME280;6172;42.646;23.344;2023-03-26T01:06:52;94063.44;;;8.43;100.00
12219;BME280;6172;42.646;23.344;2023-03-26T01:09:27;94063.72;;;8.49;100.00
12219;BME280;6172;42.646;23.344;2023-03-26T01:11:59;94057.94;;;8.47;100.00
12219;BME280;6172;42.646;23.344;2023-03-26T01:14:29;94059.16;;;8.42;100.00
12219;BME280;6172;42.646;23.344;2023-03-26T01:16:59;94064.78;;;8.55;100.00
12219;BME280;6172;42.646;23.344;2023-03-26T01:19:35;94066.47;;;8.68;100.00
12219;BME280;6172;42.646;23.344;2023-03-26T01:22:09;94068.00;;;8.46;100.00
12219;BME280;6172;42.646;23.344;2023-03-26T01:24:40;94065.53;;;8.55;100.00
12219;BME280;6172;42.646;23.344;2023-03-26T01:27:17;94065.78;;;8.41;100.00
12219;BME280;6172;42.646;23.344;2023-03-26T01:29:52;94068.66;;;8.31;100.00
12219;BME280;6172;42.646;23.344;2023-03-26T01:32:36;94073.50;;;8.20;100.00
12219;BME280;6172;42.646;23.344;2023-03-26T01:35:28;94070.78;;;8.20;100.00
12219;BME280;6172;42.646;23.344;2023-03-26T01:38:03;94081.06;;;8.32;100.00
12219;BME280;6172;42.646;23.344;2023-03-26T01:40:47;94081.41;;;8.34;100.00
12219;BME280;6172;42.646;23.344;2023-03-26T01:43:24;94090.47;;;8.24;100.00
12219;BME280;6172;42.646;23.344;2023-03-26T01:45:55;94094.28;;;8.30;100.00
12219;BME280;6172;42.646;23.344;2023-03-26T01:48:29;94091.31;;;8.21;100.00
12219;BME280;6172;42.646;23.344;2023-03-26T01:50:57;94099.22;;;8.12;100.00
12219;BME280;6172;42.646;23.344;2023-03-26T01:53:25;94085.53;;;8.19;100.00
12219;BME280;6172;42.646;23.344;2023-03-26T01:56:00;94096.28;;;8.26;100.00
12219;BME280;6172;42.646;23.344;2023-03-26T01:58:35;94099.34;;;8.28;100.00
12219;BME280;6172;42.646;23.344;2023-03-26T02:01:13;94081.28;;;8.18;100.00
12219;BME280;6172;42.646;23.344;2023-03-26T02:03:46;94087.03;;;8.23;100.00
12219;BME280;6172;42.646;23.344;2023-03-26T02:06:22;94096.28;;;8.26;100.00
12219;BME280;6172;42.646;23.344;2023-03-26T02:08:58;94093.56;;;8.26;100.00
12219;BME280;6172;42.646;23.344;2023-03-26T02:11:28;94097.75;;;8.30;100.00
12219;BME280;6172;42.646;23.344;2023-03-26T02:13:56;94102.03;;;8.28;100.00
12219;BME280;6172;42.646;23.344;2023-03-26T02:16:24;94098.69;;;8.20;100.00
12219;BME280;6172;42.646;23.344;2023-03-26T02:18:51;94099.97;;;8.12;100.00
12219;BME280;6172;42.646;23.344;2023-03-26T02:21:21;94094.84;;;8.18;100.00
12219;BME280;6172;42.646;23.344;2023-03-26T02:23:52;94096.75;;;8.21;100.00
12219;BME280;6172;42.646;23.344;2023-03-26T02:26:22;94090.00;;;8.05;100.00
12219;BME280;6172;42.646;23.344;2023-03-26T02:28:51;94083.50;;;7.99;100.00
12219;BME280;6172;42.646;23.344;2023-03-26T02:31:18;94091.13;;;8.08;100.00
12219;BME280;6172;42.646;23.344;2023-03-26T02:33:46;94096.25;;;8.02;100.00
12219;BME280;6172;42.646;23.344;2023-03-26T02:36:15;94089.16;;;7.85;100.00
12219;BME280;6172;42.646;23.344;2023-03-26T02:38:47;94086.78;;;7.87;100.00
12219;BME280;6172;42.646;23.344;2023-03-26T02:41:14;94101.78;;;7.95;100.00
12219;BME280;6172;42.646;23.344;2023-03-26T02:43:44;94089.34;;;7.98;100.00
12219;BME280;6172;42.646;23.344;2023-03-26T02:46:13;94088.69;;;7.90;100.00
12219;BME280;6172;42.646;23.344;2023-03-26T02:48:40;94089.22;;;8.05;100.00
12219;BME280;6172;42.646;23.344;2023-03-26T02:51:08;94116.91;;;7.96;100.00
12219;BME280;6172;42.646;23.344;2023-03-26T02:53:35;94106.06;;;7.93;100.00
12219;BME280;6172;42.646;23.344;2023-03-26T02:56:04;94118.53;;;7.90;100.00
12219;BME280;6172;42.646;23.344;2023-03-26T02:58:31;94124.09;;;7.80;100.00
12219;BME280;6172;42.646;23.344;2023-03-26T03:00:58;94142.34;;;7.79;100.00
12219;BME280;6172;42.646;23.344;2023-03-26T03:03:29;94128.38;;;7.81;100.00
12219;BME280;6172;42.646;23.344;2023-03-26T03:05:57;94131.47;;;7.79;100.00
12219;BME280;6172;42.646;23.344;2023-03-26T03:08:27;94135.28;;;7.85;100.00
12219;BME280;6172;42.646;23.344;2023-03-26T03:10:56;94145.09;;;8.02;100.00
12219;BME280;6172;42.646;23.344;2023-03-26T03:13:23;94139.88;;;7.88;100.00
12219;BME280;6172;42.646;23.344;2023-03-26T03:15:50;94138.16;;;8.01;100.00
12219;BME280;6172;42.646;23.344;2023-03-26T03:18:18;94145.84;;;8.03;100.00
12219;BME280;6172;42.646;23.344;2023-03-26T03:20:47;94138.03;;;8.08;100.00
12219;BME280;6172;42.646;23.344;2023-03-26T03:23:14;94128.88;;;7.99;100.00
12219;BME280;6172;42.646;23.344;2023-03-26T03:25:42;94140.69;;;7.85;100.00
12219;BME280;6172;42.646;23.344;2023-03-26T03:28:10;94147.38;;;7.77;100.00
12219;BME280;6172;42.646;23.344;2023-03-26T03:30:38;94148.19;;;7.74;100.00
12219;BME280;6172;42.646;23.344;2023-03-26T03:33:06;94158.13;;;7.84;100.00
12219;BME280;6172;42.646;23.344;2023-03-26T03:35:33;94143.06;;;7.53;100.00
12219;BME280;6172;42.646;23.344;2023-03-26T03:38:02;94142.59;;;7.58;100.00
12219;BME280;6172;42.646;23.344;2023-03-26T03:40:30;94158.00;;;7.68;100.00
12219;BME280;6172;42.646;23.344;2023-03-26T03:42:57;94142.25;;;7.56;100.00
12219;BME280;6172;42.646;23.344;2023-03-26T03:45:26;94138.91;;;7.45;100.00
12219;BME280;6172;42.646;23.344;2023-03-26T03:47:53;94141.22;;;7.47;100.00
12219;BME280;6172;42.646;23.344;2023-03-26T03:50:22;94151.88;;;7.61;100.00
12219;BME280;6172;42.646;23.344;2023-03-26T03:52:51;94154.41;;;7.45;100.00
12219;BME280;6172;42.646;23.344;2023-03-26T03:55:23;94156.66;;;7.50;100.00
12219;BME280;6172;42.646;23.344;2023-03-26T03:57:52;94154.63;;;7.27;100.00
12219;BME280;6172;42.646;23.344;2023-03-26T04:00:21;94159.78;;;7.48;100.00
12219;BME280;6172;42.646;23.344;2023-03-26T04:02:49;94173.69;;;7.54;100.00
12219;BME280;6172;42.646;23.344;2023-03-26T04:05:19;94171.41;;;7.49;100.00
12219;BME280;6172;42.646;23.344;2023-03-26T04:07:50;94167.47;;;7.53;100.00
12219;BME280;6172;42.646;23.344;2023-03-26T04:10:18;94163.31;;;7.45;100.00
12219;BME280;6172;42.646;23.344;2023-03-26T04:12:47;94148.34;;;7.34;100.00
12219;BME280;6172;42.646;23.344;2023-03-26T04:15:15;94172.19;;;7.49;100.00
12219;BME280;6172;42.646;23.344;2023-03-26T04:17:43;94165.38;;;7.34;100.00
12219;BME280;6172;42.646;23.344;2023-03-26T04:20:11;94172.34;;;7.35;100.00
12219;BME280;6172;42.646;23.344;2023-03-26T04:22:41;94185.56;;;7.30;100.00
12219;BME280;6172;42.646;23.344;2023-03-26T04:25:08;94184.00;;;7.32;100.00
12219;BME280;6172;42.646;23.344;2023-03-26T04:27:37;94197.19;;;7.27;100.00
12219;BME280;6172;42.646;23.344;2023-03-26T04:30:11;94202.38;;;7.14;100.00
12219;BME280;6172;42.646;23.344;2023-03-26T04:32:40;94209.31;;;7.19;100.00
12219;BME280;6172;42.646;23.344;2023-03-26T04:35:10;94216.94;;;7.27;100.00
12219;BME280;6172;42.646;23.344;2023-03-26T04:37:40;94213.59;;;7.16;100.00
12219;BME280;6172;42.646;23.344;2023-03-26T04:40:15;94219.59;;;7.34;100.00
12219;BME280;6172;42.646;23.344;2023-03-26T04:42:45;94235.34;;;7.46;100.00
12219;BME280;6172;42.646;23.344;2023-03-26T04:45:22;94227.56;;;7.11;100.00
12219;BME280;6172;42.646;23.344;2023-03-26T04:47:49;94233.50;;;6.99;100.00
12219;BME280;6172;42.646;23.344;2023-03-26T04:50:17;94225.25;;;7.13;100.00
12219;BME280;6172;42.646;23.344;2023-03-26T04:52:44;94233.28;;;7.20;100.00
12219;BME280;6172;42.646;23.344;2023-03-26T04:55:19;94234.31;;;7.33;100.00
12219;BME280;6172;42.646;23.344;2023-03-26T04:57:49;94235.84;;;7.34;100.00
12219;BME280;6172;42.646;23.344;2023-03-26T05:00:21;94237.84;;;7.27;100.00
12219;BME280;6172;42.646;23.344;2023-03-26T05:02:48;94238.56;;;7.34;100.00
12219;BME280;6172;42.646;23.344;2023-03-26T05:05:18;94232.81;;;7.29;100.00
12219;BME280;6172;42.646;23.344;2023-03-26T05:07:45;94233.13;;;7.38;100.00
12219;BME280;6172;42.646;23.344;2023-03-26T05:10:14;94235.69;;;7.48;100.00
12219;BME280;6172;42.646;23.344;2023-03-26T05:12:41;94243.16;;;7.41;100.00
12219;BME280;6172;42.646;23.344;2023-03-26T05:15:10;94252.03;;;7.41;100.00
12219;BME280;6172;42.646;23.344;2023-03-26T05:17:39;94248.16;;;7.42;100.00
12219;BME280;6172;42.646;23.344;2023-03-26T05:20:11;94249.59;;;7.54;100.00
12219;BME280;6172;42.646;23.344;2023-03-26T05:22:43;94250.34;;;7.54;100.00
12219;BME280;6172;42.646;23.344;2023-03-26T05:25:12;94252.47;;;7.70;100.00
12219;BME280;6172;42.646;23.344;2023-03-26T05:27:38;94253.97;;;7.74;100.00
12219;BME280;6172;42.646;23.344;2023-03-26T05:30:07;94255.44;;;7.82;100.00
12219;BME280;6172;42.646;23.344;2023-03-26T05:32:34;94257.97;;;7.96;100.00
12219;BME280;6172;42.646;23.344;2023-03-26T05:35:07;94266.03;;;8.03;100.00
12219;BME280;6172;42.646;23.344;2023-03-26T05:37:36;94264.41;;;8.09;100.00
12219;BME280;6172;42.646;23.344;2023-03-26T05:40:05;94269.09;;;8.89;100.00
12219;BME280;6172;42.646;23.344;2023-03-26T05:42:37;94250.47;;;10.67;100.00
12219;BME280;6172;42.646;23.344;2023-03-26T05:45:05;94245.34;;;12.59;90.05
12219;BME280;6172;42.646;23.344;2023-03-26T05:47:36;94238.63;;;14.34;69.85
12219;BME280;6172;42.646;23.344;2023-03-26T05:50:06;94245.03;;;15.59;60.60
12219;BME280;6172;42.646;23.344;2023-03-26T05:52:34;94243.75;;;16.77;53.80
12219;BME280;6172;42.646;23.344;2023-03-26T05:55:02;94252.97;;;16.56;52.37
12219;BME280;6172;42.646;23.344;2023-03-26T05:57:30;94255.81;;;17.21;50.06
12219;BME280;6172;42.646;23.344;2023-03-26T05:59:58;94250.31;;;17.78;48.87
12219;BME280;6172;42.646;23.344;2023-03-26T06:02:25;94240.09;;;16.80;49.02
12219;BME280;6172;42.646;23.344;2023-03-26T06:04:53;94235.31;;;17.79;46.79
12219;BME280;6172;42.646;23.344;2023-03-26T06:07:22;94238.78;;;18.70;45.29
12219;BME280;6172;42.646;23.344;2023-03-26T06:09:51;94240.59;;;18.87;44.69
12219;BME280;6172;42.646;23.344;2023-03-26T06:12:18;94229.91;;;19.59;42.42
12219;BME280;6172;42.646;23.344;2023-03-26T06:14:46;94215.84;;;19.42;41.04
12219;BME280;6172;42.646;23.344;2023-03-26T06:17:14;94229.16;;;18.94;41.78
12219;BME280;6172;42.646;23.344;2023-03-26T06:19:44;94227.13;;;17.37;44.45
12219;BME280;6172;42.646;23.344;2023-03-26T06:22:12;94227.47;;;18.82;41.42
12219;BME280;6172;42.646;23.344;2023-03-26T06:24:40;94232.22;;;18.82;40.16
12219;BME280;6172;42.646;23.344;2023-03-26T06:27:08;94236.75;;;19.14;40.03
12219;BME280;6172;42.646;23.344;2023-03-26T06:29:35;94245.00;;;18.65;40.52
12219;BME280;6172;42.646;23.344;2023-03-26T06:32:01;94242.25;;;18.27;40.74
12219;BME280;6172;42.646;23.344;2023-03-26T06:34:29;94233.31;;;19.19;39.42
12219;BME280;6172;42.646;23.344;2023-03-26T06:36:56;94226.53;;;19.34;39.23
12219;BME280;6172;42.646;23.344;2023-03-26T06:39:25;94227.41;;;19.11;38.41
12219;BME280;6172;42.646;23.344;2023-03-26T06:41:55;94231.22;;;19.14;38.83
12219;BME280;6172;42.646;23.344;2023-03-26T06:44:22;94230.09;;;18.33;39.51
12219;BME280;6172;42.646;23.344;2023-03-26T06:46:51;94232.69;;;18.95;38.96
12219;BME280;6172;42.646;23.344;2023-03-26T06:49:20;94227.06;;;19.04;39.22
12219;BME280;6172;42.646;23.344;2023-03-26T06:51:46;94239.22;;;19.12;38.83
12219;BME280;6172;42.646;23.344;2023-03-26T06:54:14;94245.78;;;19.29;37.84
12219;BME280;6172;42.646;23.344;2023-03-26T06:56:41;94244.06;;;20.06;36.35
12219;BME280;6172;42.646;23.344;2023-03-26T06:59:09;94250.97;;;20.36;35.65
12219;BME280;6172;42.646;23.344;2023-03-26T07:01:36;94246.75;;;19.61;36.14
12219;BME280;6172;42.646;23.344;2023-03-26T07:04:03;94267.25;;;18.61;38.70
12219;BME280;6172;42.646;23.344;2023-03-26T07:06:30;94258.66;;;19.87;35.96
12219;BME280;6172;42.646;23.344;2023-03-26T07:08:58;94266.06;;;19.11;37.31
12219;BME280;6172;42.646;23.344;2023-03-26T07:11:25;94262.69;;;18.58;38.46
12219;BME280;6172;42.646;23.344;2023-03-26T07:13:53;94258.84;;;19.28;37.79
12219;BME280;6172;42.646;23.344;2023-03-26T07:16:23;94265.53;;;18.93;37.40
12219;BME280;6172;42.646;23.344;2023-03-26T07:18:50;94276.31;;;18.76;36.75
12219;BME280;6172;42.646;23.344;2023-03-26T07:21:20;94266.66;;;18.43;37.39
12219;BME280;6172;42.646;23.344;2023-03-26T07:23:47;94270.84;;;17.77;38.10
12219;BME280;6172;42.646;23.344;2023-03-26T07:26:25;94254.22;;;18.62;37.71
12219;BME280;6172;42.646;23.344;2023-03-26T07:28:58;94264.53;;;18.23;38.34
12219;BME280;6172;42.646;23.344;2023-03-26T07:31:34;94253.50;;;18.38;38.38
12219;BME280;6172;42.646;23.344;2023-03-26T07:34:10;94246.41;;;19.04;37.44
12219;BME280;6172;42.646;23.344;2023-03-26T07:36:44;94246.13;;;18.73;37.13
12219;BME280;6172;42.646;23.344;2023-03-26T07:39:25;94250.59;;;18.56;37.91
12219;BME280;6172;42.646;23.344;2023-03-26T07:42:02;94246.75;;;18.39;38.52
12219;BME280;6172;42.646;23.344;2023-03-26T07:44:43;94250.84;;;17.34;39.79
12219;BME280;6172;42.646;23.344;2023-03-26T07:47:24;94245.94;;;18.62;37.58
12219;BME280;6172;42.646;23.344;2023-03-26T07:49:54;94246.69;;;18.62;37.63
12219;BME280;6172;42.646;23.344;2023-03-26T07:52:23;94256.97;;;18.62;37.02
12219;BME280;6172;42.646;23.344;2023-03-26T07:54:52;94252.88;;;18.05;38.09
12219;BME280;6172;42.646;23.344;2023-03-26T07:57:28;94247.78;;;18.27;38.26
12219;BME280;6172;42.646;23.344;2023-03-26T08:00:00;94244.38;;;18.32;37.75
12219;BME280;6172;42.646;23.344;2023-03-26T08:02:52;94246.22;;;18.49;37.49
12219;BME280;6172;42.646;23.344;2023-03-26T08:05:29;94243.25;;;18.53;37.36
12219;BME280;6172;42.646;23.344;2023-03-26T08:08:03;94230.63;;;18.08;38.00
12219;BME280;6172;42.646;23.344;2023-03-26T08:10:36;94229.34;;;17.57;37.65
12219;BME280;6172;42.646;23.344;2023-03-26T08:13:15;94237.75;;;17.77;37.18
12219;BME280;6172;42.646;23.344;2023-03-26T08:15:49;94241.94;;;17.72;36.54
12219;BME280;6172;42.646;23.344;2023-03-26T08:18:31;94244.09;;;17.92;36.32
12219;BME280;6172;42.646;23.344;2023-03-26T08:21:05;94247.63;;;18.07;32.76
12219;BME280;6172;42.646;23.344;2023-03-26T08:23:41;94241.66;;;18.08;33.79
12219;BME280;6172;42.646;23.344;2023-03-26T08:26:18;94248.78;;;17.77;36.37
12219;BME280;6172;42.646;23.344;2023-03-26T08:28:57;94247.91;;;17.71;36.80
12219;BME280;6172;42.646;23.344;2023-03-26T08:31:31;94248.16;;;17.82;35.94
12219;BME280;6172;42.646;23.344;2023-03-26T08:34:01;94248.31;;;17.78;35.94
12219;BME280;6172;42.646;23.344;2023-03-26T08:36:28;94243.22;;;17.62;36.34
12219;BME280;6172;42.646;23.344;2023-03-26T08:38:55;94246.72;;;17.86;36.74
12219;BME280;6172;42.646;23.344;2023-03-26T08:41:45;94234.16;;;18.09;36.28
12219;BME280;6172;42.646;23.344;2023-03-26T08:53:31;94236.56;;;18.30;34.03
12219;BME280;6172;42.646;23.344;2023-03-26T08:56:10;94236.41;;;17.96;35.41
12219;BME280;6172;42.646;23.344;2023-03-26T08:59:19;94237.47;;;18.13;35.13
12219;BME280;6172;42.646;23.344;2023-03-26T09:02:15;94241.50;;;17.88;35.07
12219;BME280;6172;42.646;23.344;2023-03-26T09:11:23;94238.75;;;18.41;32.57
12219;BME280;6172;42.646;23.344;2023-03-26T09:17:13;94239.38;;;18.45;33.20
12219;BME280;6172;42.646;23.344;2023-03-26T09:23:15;94225.56;;;18.07;34.74
12219;BME280;6172;42.646;23.344;2023-03-26T09:29:14;94226.00;;;17.91;33.41
12219;BME280;6172;42.646;23.344;2023-03-26T09:32:07;94210.50;;;18.31;31.94
12219;BME280;6172;42.646;23.344;2023-03-26T09:35:01;94220.44;;;17.76;32.24
12219;BME280;6172;42.646;23.344;2023-03-26T09:37:39;94227.66;;;18.50;31.44
12219;BME280;6172;42.646;23.344;2023-03-26T09:40:19;94220.19;;;18.27;31.43
12219;BME280;6172;42.646;23.344;2023-03-26T09:42:52;94222.81;;;18.59;31.07
12219;BME280;6172;42.646;23.344;2023-03-26T09:45:38;94221.22;;;18.29;31.89
12219;BME280;6172;42.646;23.344;2023-03-26T09:48:49;94218.19;;;18.13;32.65
12219;BME280;6172;42.646;23.344;2023-03-26T09:51:42;94212.00;;;18.18;32.77
12219;BME280;6172;42.646;23.344;2023-03-26T09:54:37;94215.66;;;17.86;33.94
12219;BME280;6172;42.646;23.344;2023-03-26T09:57:17;94212.78;;;17.80;32.93
12219;BME280;6172;42.646;23.344;2023-03-26T10:00:00;94203.84;;;18.38;31.64
12219;BME280;6172;42.646;23.344;2023-03-26T10:02:57;94206.28;;;18.21;32.96
12219;BME280;6172;42.646;23.344;2023-03-26T10:05:38;94190.91;;;18.15;33.18
12219;BME280;6172;42.646;23.344;2023-03-26T10:08:23;94196.97;;;18.04;33.25
12219;BME280;6172;42.646;23.344;2023-03-26T10:10:58;94190.38;;;17.87;32.78
12219;BME280;6172;42.646;23.344;2023-03-26T10:13:32;94189.69;;;17.92;32.67
12219;BME280;6172;42.646;23.344;2023-03-26T10:16:14;94182.66;;;17.91;33.01
12219;BME280;6172;42.646;23.344;2023-03-26T10:18:57;94177.66;;;18.04;32.39
12219;BME280;6172;42.646;23.344;2023-03-26T10:21:37;94166.16;;;18.64;32.13
12219;BME280;6172;42.646;23.344;2023-03-26T10:24:19;94162.75;;;18.69;31.08
12219;BME280;6172;42.646;23.344;2023-03-26T10:26:56;94157.72;;;18.53;30.90
12219;BME280;6172;42.646;23.344;2023-03-26T10:29:53;94156.56;;;18.16;30.71
12219;BME280;6172;42.646;23.344;2023-03-26T10:32:28;94157.69;;;18.24;29.31
12219;BME280;6172;42.646;23.344;2023-03-26T10:35:19;94147.69;;;17.97;30.34
12219;BME280;6172;42.646;23.344;2023-03-26T10:38:03;94139.44;;;18.12;30.20
12219;BME280;6172;42.646;23.344;2023-03-26T10:40:43;94129.63;;;18.25;30.65
12219;BME280;6172;42.646;23.344;2023-03-26T10:46:38;94132.66;;;17.98;29.92
12219;BME280;6172;42.646;23.344;2023-03-26T10:49:49;94124.31;;;17.93;29.79
12219;BME280;6172;42.646;23.344;2023-03-26T10:52:26;94127.34;;;17.80;29.21
12219;BME280;6172;42.646;23.344;2023-03-26T10:55:02;94123.53;;;17.92;29.72
12219;BME280;6172;42.646;23.344;2023-03-26T10:57:38;94112.03;;;17.79;29.66
12219;BME280;6172;42.646;23.344;2023-03-26T11:00:16;94108.72;;;18.48;28.07
12219;BME280;6172;42.646;23.344;2023-03-26T11:03:04;94112.19;;;18.77;28.53
12219;BME280;6172;42.646;23.344;2023-03-26T11:05:52;94099.34;;;18.74;28.30
12219;BME280;6172;42.646;23.344;2023-03-26T11:08:30;94103.31;;;18.88;28.05
12219;BME280;6172;42.646;23.344;2023-03-26T11:11:07;94113.47;;;18.47;27.78
12219;BME280;6172;42.646;23.344;2023-03-26T11:13:45;94107.28;;;18.38;26.69
12219;BME280;6172;42.646;23.344;2023-03-26T11:16:22;94101.09;;;18.28;26.59
12219;BME280;6172;42.646;23.344;2023-03-26T11:18:56;94099.75;;;18.24;26.16
12219;BME280;6172;42.646;23.344;2023-03-26T11:21:32;94093.59;;;18.00;26.22
12219;BME280;6172;42.646;23.344;2023-03-26T11:27:15;94093.38;;;18.61;26.22
12219;BME280;6172;42.646;23.344;2023-03-26T11:29:54;94088.16;;;18.49;25.61
12219;BME280;6172;42.646;23.344;2023-03-26T11:32:32;94089.63;;;18.79;25.56
12219;BME280;6172;42.646;23.344;2023-03-26T11:35:07;94086.97;;;18.70;25.98
12219;BME280;6172;42.646;23.344;2023-03-26T11:37:47;94080.84;;;18.02;26.76
12219;BME280;6172;42.646;23.344;2023-03-26T11:40:22;94082.22;;;18.70;26.09
12219;BME280;6172;42.646;23.344;2023-03-26T11:42:59;94076.75;;;18.41;25.79
12219;BME280;6172;42.646;23.344;2023-03-26T11:45:41;94066.25;;;18.60;25.46
12219;BME280;6172;42.646;23.344;2023-03-26T11:48:13;94055.66;;;18.93;25.45
12219;BME280;6172;42.646;23.344;2023-03-26T11:50:45;94062.63;;;18.88;25.82
12219;BME280;6172;42.646;23.344;2023-03-26T11:53:17;94044.16;;;18.60;26.21
12219;BME280;6172;42.646;23.344;2023-03-26T11:55:47;94038.13;;;19.16;25.33
12219;BME280;6172;42.646;23.344;2023-03-26T11:58:27;94037.44;;;19.21;24.78
12219;BME280;6172;42.646;23.344;2023-03-26T12:00:55;94024.81;;;19.34;25.31
12219;BME280;6172;42.646;23.344;2023-03-26T12:03:23;94018.13;;;19.41;24.78
12219;BME280;6172;42.646;23.344;2023-03-26T12:06:08;94018.94;;;19.07;25.51
12219;BME280;6172;42.646;23.344;2023-03-26T12:08:38;94012.88;;;18.83;25.22
12219;BME280;6172;42.646;23.344;2023-03-26T12:11:08;94014.19;;;18.87;25.50
12219;BME280;6172;42.646;23.344;2023-03-26T12:13:54;94005.41;;;18.34;26.27
12219;BME280;6172;42.646;23.344;2023-03-26T12:16:24;94011.59;;;18.64;26.35
12219;BME280;6172;42.646;23.344;2023-03-26T12:18:59;94000.72;;;18.06;26.33
12219;BME280;6172;42.646;23.344;2023-03-26T12:21:28;93984.06;;;18.15;26.27
12219;BME280;6172;42.646;23.344;2023-03-26T12:23:57;93982.94;;;18.41;25.33
12219;BME280;6172;42.646;23.344;2023-03-26T12:26:43;93979.56;;;18.17;25.97
12219;BME280;6172;42.646;23.344;2023-03-26T12:29:13;93971.91;;;18.41;25.36
12219;BME280;6172;42.646;23.344;2023-03-26T12:31:48;93957.22;;;18.50;25.77
12219;BME280;6172;42.646;23.344;2023-03-26T12:34:17;93952.91;;;18.63;25.56
12219;BME280;6172;42.646;23.344;2023-03-26T12:36:50;93971.50;;;18.14;25.83
12219;BME280;6172;42.646;23.344;2023-03-26T12:39:35;93966.22;;;18.45;25.96
12219;BME280;6172;42.646;23.344;2023-03-26T12:42:04;93963.72;;;18.47;25.78
12219;BME280;6172;42.646;23.344;2023-03-26T12:44:37;93952.88;;;18.43;25.89
12219;BME280;6172;42.646;23.344;2023-03-26T12:47:14;93942.44;;;18.33;25.63
12219;BME280;6172;42.646;23.344;2023-03-26T12:49:44;93955.13;;;18.25;24.57
12219;BME280;6172;42.646;23.344;2023-03-26T12:52:32;93939.75;;;18.38;24.47
12219;BME280;6172;42.646;23.344;2023-03-26T12:55:13;93949.94;;;18.32;25.51
12219;BME280;6172;42.646;23.344;2023-03-26T12:57:46;93939.97;;;18.35;23.79
12219;BME280;6172;42.646;23.344;2023-03-26T13:00:25;93941.00;;;18.37;23.47
12219;BME280;6172;42.646;23.344;2023-03-26T13:03:14;93942.25;;;18.36;22.79
12219;BME280;6172;42.646;23.344;2023-03-26T13:05:53;93944.25;;;17.87;23.37
12219;BME280;6172;42.646;23.344;2023-03-26T13:11:54;93942.78;;;17.71;23.90
12219;BME280;6172;42.646;23.344;2023-03-26T13:14:37;93934.97;;;17.41;23.52
12219;BME280;6172;42.646;23.344;2023-03-26T13:17:15;93945.22;;;17.25;23.04
12219;BME280;6172;42.646;23.344;2023-03-26T13:19:53;93923.75;;;17.29;22.15
12219;BME280;6172;42.646;23.344;2023-03-26T13:22:25;93925.00;;;17.28;22.77
12219;BME280;6172;42.646;23.344;2023-03-26T13:25:01;93918.44;;;17.55;22.02
12219;BME280;6172;42.646;23.344;2023-03-26T13:27:47;93926.34;;;17.62;21.11
12219;BME280;6172;42.646;23.344;2023-03-26T13:30:24;93930.59;;;17.19;21.28
12219;BME280;6172;42.646;23.344;2023-03-26T13:33:13;93919.97;;;17.27;21.76
12219;BME280;6172;42.646;23.344;2023-03-26T13:35:48;93923.00;;;17.29;21.99
12219;BME280;6172;42.646;23.344;2023-03-26T13:38:24;93920.91;;;17.24;22.13
12219;BME280;6172;42.646;23.344;2023-03-26T13:40:59;93916.34;;;17.06;22.18
12219;BME280;6172;42.646;23.344;2023-03-26T13:43:36;93925.28;;;17.30;22.79
12219;BME280;6172;42.646;23.344;2023-03-26T13:46:18;93922.34;;;17.19;22.65
12219;BME280;6172;42.646;23.344;2023-03-26T13:48:53;93922.63;;;16.69;22.94
12219;BME280;6172;42.646;23.344;2023-03-26T13:51:24;93924.75;;;16.50;22.15
12219;BME280;6172;42.646;23.344;2023-03-26T13:53:57;93926.09;;;16.31;22.64
12219;BME280;6172;42.646;23.344;2023-03-26T13:56:30;93920.34;;;16.44;22.14
12219;BME280;6172;42.646;23.344;2023-03-26T13:59:02;93912.44;;;16.37;22.33
12219;BME280;6172;42.646;23.344;2023-03-26T14:01:34;93913.16;;;16.46;21.82
12219;BME280;6172;42.646;23.344;2023-03-26T14:04:14;93914.81;;;16.29;21.43
12219;BME280;6172;42.646;23.344;2023-03-26T14:06:49;93913.56;;;16.30;22.31
12219;BME280;6172;42.646;23.344;2023-03-26T14:09:27;93916.28;;;16.16;21.97